createdAt,value
2023-10-04T00:03:37.814Z,100813.53
2023-10-04T00:08:39.237Z,100817.25
2023-10-04T00:13:44.688Z,100819.38
2023-10-04T00:18:46.343Z,100829.03
2023-10-04T00:23:47.723Z,100814.97
2023-10-04T00:28:49.021Z,100810.75
2023-10-04T00:33:50.454Z,100809.91
2023-10-04T00:38:51.799Z,100806.31
2023-10-04T00:43:53.120Z,100804.88
2023-10-04T00:48:55.656Z,100803.00
2023-10-04T00:53:57.168Z,100802.59
2023-10-04T00:58:58.502Z,100805.94
2023-10-04T01:04:03.349Z,100806.56
2023-10-04T01:09:07.224Z,100798.56
2023-10-04T01:14:24.903Z,100788.88
2023-10-04T01:19:26.832Z,100793.94
2023-10-04T01:24:28.271Z,100781.31
2023-10-04T01:29:30.680Z,100767.19
2023-10-04T01:34:31.990Z,100776.50
2023-10-04T01:39:33.758Z,100772.31
2023-10-04T01:44:35.228Z,100766.22
2023-10-04T01:49:36.651Z,100780.50
2023-10-04T01:54:37.941Z,100767.06
2023-10-04T01:59:39.275Z,100794.38
2023-10-04T02:04:40.580Z,100811.88
2023-10-04T02:09:42.061Z,100820.53
2023-10-04T02:14:43.419Z,100824.25
2023-10-04T02:19:44.759Z,100835.63
2023-10-04T02:24:46.038Z,100833.97
2023-10-04T02:29:48.212Z,100839.41
2023-10-04T02:34:51.866Z,100850.97
2023-10-04T02:39:53.144Z,100863.81
2023-10-04T02:44:54.434Z,100857.97
2023-10-04T02:49:55.738Z,100881.88
2023-10-04T02:54:57.574Z,100874.75
2023-10-04T03:00:00.224Z,100884.63
2023-10-04T03:05:01.592Z,100872.69
2023-10-04T03:10:03.633Z,100879.81
2023-10-04T03:15:05.350Z,100874.34
2023-10-04T03:20:17.042Z,100862.97
2023-10-04T03:25:18.835Z,100865.31
2023-10-04T03:30:20.228Z,100870.53
2023-10-04T03:35:22.336Z,100869.50
2023-10-04T03:40:23.708Z,100876.00
2023-10-04T03:45:26.969Z,100882.78
2023-10-04T03:50:29.172Z,100880.88
2023-10-04T03:55:30.677Z,100877.53
2023-10-04T04:00:33.128Z,100894.78
2023-10-04T04:05:41.075Z,100891.41
2023-10-04T04:10:42.659Z,100891.22
2023-10-04T04:15:44.058Z,100897.88
2023-10-04T04:20:45.389Z,100901.25
2023-10-04T04:25:50.581Z,100899.41
2023-10-04T04:30:54.725Z,100902.59
2023-10-04T04:36:02.282Z,100903.47
2023-10-04T04:41:06.821Z,100905.19
2023-10-04T04:46:10.161Z,100900.13
2023-10-04T04:51:11.598Z,100901.56
2023-10-04T04:56:16.482Z,100901.34
2023-10-04T05:01:17.888Z,100904.72
2023-10-04T05:06:23.633Z,100896.72
2023-10-04T05:11:25.227Z,100903.19
2023-10-04T05:16:26.930Z,100897.72
2023-10-04T05:21:28.327Z,100913.47
2023-10-04T05:26:29.961Z,100901.63
2023-10-04T05:31:31.281Z,100906.44
2023-10-04T05:36:32.634Z,100919.06
2023-10-04T05:41:34.158Z,100916.75
2023-10-04T05:46:36.087Z,100925.41
2023-10-04T05:51:37.440Z,100929.16
2023-10-04T05:56:40.861Z,100932.50
2023-10-04T06:01:42.932Z,100934.38
2023-10-04T06:06:45.809Z,100929.75
2023-10-04T06:11:48.171Z,100927.63
2023-10-04T06:16:51.627Z,100946.59
2023-10-04T06:21:53.259Z,100950.31
2023-10-04T06:26:54.598Z,100964.56
2023-10-04T06:31:55.971Z,100974.31
2023-10-04T06:36:57.257Z,100965.06
2023-10-04T06:41:59.242Z,100973.44
2023-10-04T06:47:01.834Z,100993.88
2023-10-04T06:52:03.356Z,100996.91
2023-10-04T06:57:04.675Z,101005.06
2023-10-04T07:02:06.044Z,101010.09
2023-10-04T07:07:07.344Z,101011.78
2023-10-04T07:12:08.926Z,101024.19
2023-10-04T07:17:10.239Z,101025.47
2023-10-04T07:22:11.514Z,101039.75
2023-10-04T07:27:12.886Z,101032.50
2023-10-04T07:32:14.487Z,101046.63
2023-10-04T07:37:15.767Z,101036.53
2023-10-04T07:42:17.921Z,101047.69
2023-10-04T07:47:19.354Z,101036.06
2023-10-04T07:52:20.727Z,101041.38
2023-10-04T07:57:22.702Z,101034.38
2023-10-04T08:02:24.362Z,101036.97
2023-10-04T08:07:27.058Z,101031.41
2023-10-04T08:12:28.400Z,101041.56
2023-10-04T08:17:30.984Z,101035.22
2023-10-04T08:22:32.433Z,101031.41
2023-10-04T08:27:35.555Z,101032.31
2023-10-04T08:32:37.214Z,101040.06
2023-10-04T08:37:38.536Z,101034.00
2023-10-04T08:42:39.866Z,101038.41
2023-10-04T08:47:41.252Z,101029.38
2023-10-04T08:52:42.764Z,101037.72
2023-10-04T08:57:44.166Z,101033.34
2023-10-04T09:02:48.437Z,101028.69
2023-10-04T09:07:52.553Z,101031.19
2023-10-04T09:12:58.949Z,101041.31
2023-10-04T09:18:03.994Z,101044.06
2023-10-04T09:23:15.446Z,101036.06
2023-10-04T09:28:16.787Z,101046.78
2023-10-04T09:33:33.746Z,101040.63
2023-10-04T09:38:36.805Z,101049.06
2023-10-04T09:43:38.669Z,101056.59
2023-10-04T09:48:42.730Z,101052.09
2023-10-04T09:53:44.626Z,101061.06
2023-10-04T09:58:52.678Z,101059.25
2023-10-04T10:03:57.745Z,101067.25
2023-10-04T10:08:59.582Z,101063.81
2023-10-04T10:14:03.309Z,101056.34
2023-10-04T10:19:05.237Z,101059.25
2023-10-04T10:24:10.635Z,101061.16
2023-10-04T10:29:23.834Z,101054.69
2023-10-04T10:34:25.662Z,101072.31
2023-10-04T10:39:31.316Z,101065.78
2023-10-04T10:44:34.911Z,101073.56
2023-10-04T10:49:40.326Z,101067.44
2023-10-04T10:54:41.937Z,101060.75
2023-10-04T10:59:43.306Z,101059.91
2023-10-04T11:04:44.638Z,101058.41
2023-10-04T11:09:52.696Z,101051.25
2023-10-04T11:14:54.127Z,101042.00
2023-10-04T11:19:55.418Z,101043.09
2023-10-04T11:24:56.772Z,101040.31
2023-10-04T11:29:58.074Z,101034.25
2023-10-04T11:35:02.718Z,101038.56
2023-10-04T11:40:06.151Z,101031.66
2023-10-04T11:45:17.046Z,101029.22
2023-10-04T11:50:18.799Z,101017.06
2023-10-04T11:55:27.884Z,101019.44
2023-10-04T12:00:29.291Z,101018.06
2023-10-04T12:05:30.905Z,101012.88
2023-10-04T12:10:32.198Z,101030.50
2023-10-04T12:15:33.844Z,101014.97
2023-10-04T12:20:37.420Z,101027.19
2023-10-04T12:25:39.071Z,101029.88
2023-10-04T12:30:40.485Z,101029.28
2023-10-04T12:35:43.314Z,101020.03
2023-10-04T12:40:44.790Z,101010.78
2023-10-04T12:45:46.222Z,101021.75
2023-10-04T12:50:47.642Z,101011.38
2023-10-04T12:55:48.938Z,101021.72
2023-10-04T13:00:54.670Z,101022.41
2023-10-04T13:05:56.540Z,101037.53
2023-10-04T13:10:59.435Z,101029.31
2023-10-04T13:16:00.850Z,101027.59
2023-10-04T13:21:02.222Z,101028.53
2023-10-04T13:26:03.548Z,101021.75
2023-10-04T13:31:06.610Z,101025.97
2023-10-04T13:36:08.074Z,101014.41
2023-10-04T13:41:13.047Z,101001.56
2023-10-04T13:46:15.691Z,100994.16
2023-10-04T13:51:22.722Z,100992.97
2023-10-04T13:56:24.087Z,100987.41
2023-10-04T14:01:26.085Z,100998.91
2023-10-04T14:06:27.563Z,100987.16
2023-10-04T14:11:29.000Z,100974.47
2023-10-04T14:16:30.347Z,100973.84
2023-10-04T14:21:31.721Z,100985.91
2023-10-04T14:26:33.653Z,100975.66
2023-10-04T14:31:35.251Z,100977.16
2023-10-04T14:36:39.336Z,100980.94
2023-10-04T14:41:42.194Z,100984.13
2023-10-04T14:46:43.809Z,100978.34
2023-10-04T14:51:45.168Z,100959.75
2023-10-04T14:56:47.631Z,100964.22
2023-10-04T15:01:49.026Z,100959.59
2023-10-04T15:06:51.153Z,100953.69
2023-10-04T15:11:52.506Z,100962.31
2023-10-04T15:16:54.584Z,100963.63
2023-10-04T15:21:56.088Z,100962.31
2023-10-04T15:26:57.503Z,100961.50
2023-10-04T15:32:00.033Z,100966.91
2023-10-04T15:37:01.442Z,100965.91
2023-10-04T15:42:05.187Z,100963.16
2023-10-04T15:47:06.476Z,100966.34
2023-10-04T15:52:08.685Z,100967.00
2023-10-04T15:57:10.551Z,100963.63
2023-10-04T16:02:12.148Z,100969.78
2023-10-04T16:07:14.463Z,100969.59
2023-10-04T16:12:15.791Z,100967.56
2023-10-04T16:17:17.548Z,100960.41
2023-10-04T16:22:18.893Z,100961.28
2023-10-04T16:27:20.185Z,100960.69
2023-10-04T16:32:24.115Z,100965.91
2023-10-04T16:37:25.776Z,100973.09
2023-10-04T16:42:27.096Z,100976.47
2023-10-04T16:47:28.455Z,100987.84
2023-10-04T16:52:29.776Z,100988.28
2023-10-04T16:57:31.384Z,100981.75
2023-10-04T17:02:32.746Z,100985.91
2023-10-04T17:07:34.149Z,100990.47
2023-10-04T17:12:35.501Z,100990.31
2023-10-04T17:17:36.881Z,101000.56
2023-10-04T17:22:38.282Z,101002.53
2023-10-04T17:27:39.684Z,101004.25
2023-10-04T17:32:41.152Z,101003.97
2023-10-04T17:37:42.546Z,101002.25
2023-10-04T17:42:44.512Z,100992.75
2023-10-04T17:47:45.942Z,101003.75
2023-10-04T17:52:47.346Z,101000.13
2023-10-04T17:57:48.698Z,101006.88
2023-10-04T18:02:50.680Z,100998.47
2023-10-04T18:07:52.104Z,101007.31
2023-10-04T18:12:53.480Z,100997.66
2023-10-04T18:17:54.856Z,100999.97
2023-10-04T18:22:57.698Z,100990.06
2023-10-04T18:27:59.860Z,100972.22
2023-10-04T18:33:01.399Z,100981.88
2023-10-04T18:38:02.848Z,100976.03
2023-10-04T18:43:05.721Z,100973.50
2023-10-04T18:48:07.117Z,100977.09
2023-10-04T18:53:08.496Z,100966.72
2023-10-04T18:58:14.665Z,100965.25
2023-10-04T19:03:16.532Z,100970.31
2023-10-04T19:08:18.952Z,100972.47
2023-10-04T19:13:20.630Z,100971.88
2023-10-04T19:18:22.942Z,100979.22
2023-10-04T19:23:24.310Z,100977.94
2023-10-04T19:28:27.307Z,100974.38
2023-10-04T19:33:29.060Z,100981.75
2023-10-04T19:38:31.181Z,100977.81
2023-10-04T19:43:32.494Z,100979.69
2023-10-04T19:48:34.780Z,100973.66
2023-10-04T19:53:37.170Z,100978.00
2023-10-04T19:58:38.471Z,100984.91
2023-10-04T20:03:39.899Z,100990.84
2023-10-04T20:08:41.386Z,100980.91
2023-10-04T20:13:44.116Z,100966.63
2023-10-04T20:18:45.492Z,100951.94
2023-10-04T20:23:46.943Z,100956.38
2023-10-04T20:28:48.560Z,100948.16
2023-10-04T20:33:49.923Z,100949.19
2023-10-04T20:38:51.460Z,100953.00
2023-10-04T20:43:52.816Z,100953.00
2023-10-04T20:48:54.164Z,100946.94
2023-10-04T20:53:55.882Z,100945.66
2023-10-04T20:58:57.975Z,100949.63
2023-10-04T21:03:59.483Z,100942.47
2023-10-04T21:09:00.959Z,100949.38
2023-10-04T21:14:03.377Z,100955.69
2023-10-04T21:19:04.977Z,100949.22
2023-10-04T21:24:17.685Z,100948.44
2023-10-04T21:29:19.920Z,100948.66
2023-10-04T21:34:22.855Z,100955.56
2023-10-04T21:39:29.804Z,100953.63
2023-10-04T21:44:42.135Z,100954.25
2023-10-04T21:49:46.305Z,100953.00
2023-10-04T21:54:47.621Z,100941.91
2023-10-04T21:59:48.973Z,100935.38
2023-10-04T22:04:50.855Z,100919.81
2023-10-04T22:09:52.303Z,100905.91
2023-10-04T22:14:53.629Z,100905.53
2023-10-04T22:19:55.036Z,100895.47
2023-10-04T22:25:03.068Z,100892.31
2023-10-04T22:30:13.632Z,100892.09
2023-10-04T22:35:15.580Z,100886.38
2023-10-04T22:40:20.135Z,100892.06
2023-10-04T22:45:21.616Z,100881.31
2023-10-04T22:50:22.958Z,100876.97
2023-10-04T22:55:24.732Z,100867.25
2023-10-04T23:00:26.781Z,100862.22
2023-10-04T23:05:28.401Z,100852.78
2023-10-04T23:10:33.390Z,100852.53
2023-10-04T23:15:34.718Z,100839.13
2023-10-04T23:20:39.141Z,100836.97
2023-10-04T23:25:40.828Z,100823.06
2023-10-04T23:30:45.607Z,100819.28
2023-10-04T23:35:59.811Z,100826.50
2023-10-04T23:41:16.284Z,100840.38
2023-10-04T23:46:29.014Z,100833.84
2023-10-04T23:51:30.726Z,100832.00
2023-10-04T23:56:32.413Z,100829.22
